Time;durP1;ratioP1;P1;durP2;ratioP2;P2;SDS_P1;SDS_P2;PMS_P1;PMS_P2;Temp;Humidity;BMP_temperature;BMP_pressure;BME280_temperature;BME280_humidity;BME280_pressure;Samples;Min_cycle;Max_cycle;Signal;HPM_P1;HPM_P2
2023/01/01 00:01:38;;;;;;;30.90;27.03;;;16.50;99.90;;;;;;5054657;28;20455;-67
2023/01/01 00:04:07;;;;;;;29.63;22.70;;;16.40;99.90;;;;;;5054419;28;20469;-69
2023/01/01 00:06:34;;;;;;;26.87;21.80;;;16.40;99.90;;;;;;5054581;28;20811;-68
2023/01/01 00:12:00;;;;;;;25.87;20.50;;;16.40;99.90;;;;;;4993732;28;20446;-66
2023/01/01 00:14:27;;;;;;;32.27;19.67;;;16.40;99.90;;;;;;4993448;28;20493;-66
2023/01/01 00:16:57;;;;;;;23.63;19.10;;;16.30;99.90;;;;;;5019826;28;20455;-66
2023/01/01 00:19:23;;;;;;;23.00;19.30;;;16.30;99.90;;;;;;5054324;28;20450;-67
2023/01/01 00:21:50;;;;;;;18.97;16.20;;;16.40;99.90;;;;;;5054205;28;20541;-67
2023/01/01 00:24:17;;;;;;;22.07;17.90;;;16.40;99.90;;;;;;5053955;28;20546;-66
2023/01/01 00:26:44;;;;;;;22.23;15.70;;;16.40;99.90;;;;;;5054371;28;20461;-68
2023/01/01 00:29:11;;;;;;;20.23;15.40;;;16.40;99.90;;;;;;5053776;28;20533;-68
2023/01/01 00:31:38;;;;;;;20.13;15.50;;;16.40;99.90;;;;;;5053927;28;20469;-67
2023/01/01 00:34:06;;;;;;;16.50;14.10;;;16.40;99.90;;;;;;5054168;28;20469;-66
2023/01/01 00:36:33;;;;;;;16.90;12.90;;;16.30;99.90;;;;;;5053930;28;20465;-67
2023/01/01 00:39:02;;;;;;;15.50;12.23;;;16.30;99.90;;;;;;5053938;28;20451;-68
2023/01/01 00:41:29;;;;;;;14.53;10.37;;;16.30;99.90;;;;;;5054465;28;20907;-65
2023/01/01 00:43:56;;;;;;;16.70;10.60;;;16.30;99.90;;;;;;5054867;28;20920;-67
2023/01/01 00:46:22;;;;;;;11.97;9.53;;;16.30;99.90;;;;;;5055859;28;20577;-65
2023/01/01 00:48:49;;;;;;;13.30;8.20;;;16.30;99.90;;;;;;5055639;28;20483;-66
2023/01/01 00:51:17;;;;;;;10.50;7.70;;;16.30;99.90;;;;;;5054819;28;20900;-66
2023/01/01 00:53:44;;;;;;;11.03;7.80;;;16.40;99.90;;;;;;5054624;28;20554;-67
2023/01/01 00:56:11;;;;;;;9.20;6.67;;;16.30;99.90;;;;;;5055145;28;20501;-67
2023/01/01 00:58:38;;;;;;;9.93;7.80;;;16.40;99.90;;;;;;5054469;28;20459;-66
2023/01/01 01:01:05;;;;;;;9.13;6.07;;;16.40;99.90;;;;;;5054868;28;20454;-69
2023/01/01 01:03:32;;;;;;;13.00;7.00;;;16.40;99.90;;;;;;5054458;28;20481;-66
2023/01/01 01:06:08;;;;;;;8.80;6.00;;;16.40;99.90;;;;;;5053997;28;20485;-67
2023/01/01 01:08:38;;;;;;;7.00;5.00;;;16.40;99.90;;;;;;5053793;28;20473;-68
2023/01/01 01:11:05;;;;;;;17.20;4.90;;;16.40;99.90;;;;;;5053840;28;20469;-67
2023/01/01 01:13:32;;;;;;;6.87;5.00;;;16.40;99.90;;;;;;5054082;28;20455;-67
2023/01/01 01:15:59;;;;;;;7.77;4.13;;;16.40;99.90;;;;;;5054190;28;20466;-67
2023/01/01 01:18:26;;;;;;;8.93;5.20;;;16.40;99.90;;;;;;5054095;28;20459;-66
2023/01/01 01:20:54;;;;;;;10.03;3.70;;;16.40;99.90;;;;;;5054051;28;20465;-68
2023/01/01 01:23:21;;;;;;;8.10;6.07;;;16.40;99.90;;;;;;5053936;28;20455;-67
2023/01/01 01:25:49;;;;;;;6.60;4.83;;;16.40;99.90;;;;;;5053948;28;20549;-66
2023/01/01 01:28:16;;;;;;;6.70;5.10;;;16.40;99.90;;;;;;5053967;28;20455;-68
2023/01/01 01:30:43;;;;;;;6.00;4.17;;;16.40;99.90;;;;;;5055217;28;20967;-68
2023/01/01 01:33:09;;;;;;;6.30;4.20;;;16.30;99.90;;;;;;5057421;28;20463;-67
2023/01/01 01:35:36;;;;;;;7.60;4.27;;;16.30;99.90;;;;;;5057460;28;20654;-67
2023/01/01 01:38:03;;;;;;;5.70;4.20;;;16.30;99.90;;;;;;5057392;28;20455;-67
2023/01/01 01:40:30;;;;;;;6.37;5.00;;;16.30;99.90;;;;;;5056918;28;20795;-67
2023/01/01 01:42:58;;;;;;;6.07;4.30;;;16.30;99.90;;;;;;5057131;28;20530;-65
2023/01/01 01:45:25;;;;;;;10.30;8.63;;;16.30;99.90;;;;;;5056832;28;20489;-67
2023/01/01 01:47:55;;;;;;;6.30;4.30;;;16.30;99.90;;;;;;5057127;28;20559;-67
2023/01/01 01:50:25;;;;;;;5.93;4.20;;;16.30;99.90;;;;;;5057156;28;20487;-65
2023/01/01 01:53:08;;;;;;;9.90;4.13;;;16.30;99.90;;;;;;5056886;28;20453;-68
2023/01/01 01:55:38;;;;;;;6.93;4.63;;;16.30;99.90;;;;;;5057169;28;20444;-67
2023/01/01 01:58:11;;;;;;;8.70;4.70;;;16.30;99.90;;;;;;5057201;28;20482;-68
2023/01/01 02:00:38;;;;;;;6.33;3.97;;;16.30;99.90;;;;;;5057222;28;20504;-66
2023/01/01 02:03:07;;;;;;;8.23;4.80;;;16.30;99.90;;;;;;5056418;28;20465;-66
2023/01/01 02:05:35;;;;;;;5.17;3.90;;;16.30;99.90;;;;;;5057022;28;20469;-68
2023/01/01 02:08:04;;;;;;;6.80;4.40;;;16.30;99.90;;;;;;5056374;28;20904;-67
2023/01/01 02:10:32;;;;;;;10.43;4.20;;;16.30;99.90;;;;;;5056658;28;20565;-67
2023/01/01 02:12:59;;;;;;;5.60;4.47;;;16.30;99.90;;;;;;5056169;28;20494;-66
2023/01/01 02:15:33;;;;;;;8.80;4.27;;;16.40;99.90;;;;;;5056339;28;20454;-67
2023/01/01 02:18:02;;;;;;;7.53;3.60;;;16.40;99.90;;;;;;5056863;28;20490;-67
2023/01/01 02:20:38;;;;;;;8.13;4.70;;;16.40;99.90;;;;;;5056388;28;20541;-67
2023/01/01 02:23:39;;;;;;;7.80;4.47;;;16.40;99.90;;;;;;5056234;28;20530;-67
2023/01/01 02:26:23;;;;;;;5.73;3.47;;;16.40;99.90;;;;;;5056357;28;20436;-67
2023/01/01 02:28:58;;;;;;;9.60;4.50;;;16.40;99.90;;;;;;5056309;28;20447;-67
2023/01/01 02:31:27;;;;;;;10.63;4.30;;;16.40;99.90;;;;;;5056448;28;20435;-68
2023/01/01 02:33:59;;;;;;;7.33;3.67;;;16.30;99.90;;;;;;5056013;28;20461;-68
2023/01/01 02:36:28;;;;;;;11.33;4.30;;;16.40;99.90;;;;;;5056045;28;20439;-68
2023/01/01 02:38:57;;;;;;;6.47;3.73;;;16.30;99.90;;;;;;5056207;28;20461;-67
2023/01/01 02:41:27;;;;;;;5.57;4.13;;;16.30;99.90;;;;;;5055316;28;20451;-67
2023/01/01 02:43:56;;;;;;;5.43;3.90;;;16.30;99.90;;;;;;5056133;28;20439;-67
2023/01/01 02:46:23;;;;;;;10.27;5.10;;;16.30;99.90;;;;;;5055605;28;21045;-67
2023/01/01 02:48:51;;;;;;;7.60;4.23;;;16.30;99.90;;;;;;5055639;28;20933;-66
2023/01/01 02:51:33;;;;;;;7.43;4.70;;;16.20;99.90;;;;;;5055753;28;20570;-67
2023/01/01 02:54:08;;;;;;;11.77;5.23;;;16.20;99.90;;;;;;5055715;28;20547;-67
2023/01/01 02:56:44;;;;;;;8.90;4.77;;;16.10;99.90;;;;;;5056698;28;20719;-66
2023/01/01 03:02:17;;;;;;;9.63;5.23;;;16.10;99.90;;;;;;5055613;28;20431;-67
2023/01/01 03:04:54;;;;;;;6.60;4.37;;;16.10;99.90;;;;;;5055479;28;20807;-68
2023/01/01 03:07:35;;;;;;;11.10;4.90;;;16.00;99.90;;;;;;5055898;28;20439;-67
2023/01/01 03:10:09;;;;;;;7.30;4.33;;;16.00;99.90;;;;;;5055521;28;20547;-67
2023/01/01 03:12:42;;;;;;;7.23;4.27;;;16.00;99.90;;;;;;5056262;28;20747;-67
2023/01/01 03:15:19;;;;;;;9.10;4.23;;;16.00;99.90;;;;;;5055391;28;20796;-67
2023/01/01 03:17:50;;;;;;;8.73;4.30;;;16.00;99.90;;;;;;5055385;28;20454;-67
2023/01/01 03:20:23;;;;;;;9.07;4.53;;;16.00;99.90;;;;;;5055786;28;20523;-67
2023/01/01 03:22:52;;;;;;;8.57;4.63;;;16.00;99.90;;;;;;5055233;28;20443;-67
2023/01/01 03:25:23;;;;;;;9.40;4.70;;;16.00;99.90;;;;;;5055341;28;20838;-67
2023/01/01 03:27:53;;;;;;;9.27;4.40;;;16.00;99.90;;;;;;5055003;28;20886;-67
2023/01/01 03:30:22;;;;;;;7.27;3.97;;;16.00;99.90;;;;;;5055393;28;20570;-66
2023/01/01 03:33:00;;;;;;;7.17;3.50;;;16.00;99.90;;;;;;5055455;28;20462;-66
2023/01/01 03:35:33;;;;;;;6.73;3.70;;;16.00;99.90;;;;;;5055175;28;20564;-67
2023/01/01 03:38:01;;;;;;;6.77;4.30;;;16.10;99.90;;;;;;5054992;28;20443;-66
2023/01/01 03:40:31;;;;;;;7.90;4.67;;;16.00;99.90;;;;;;5055037;28;20570;-67
2023/01/01 03:43:02;;;;;;;4.77;3.17;;;16.00;99.90;;;;;;5055411;28;20455;-66
2023/01/01 03:45:36;;;;;;;7.83;4.23;;;16.10;99.90;;;;;;5054588;28;20582;-66
2023/01/01 03:48:04;;;;;;;6.13;3.50;;;16.10;99.90;;;;;;5055299;28;20455;-67
2023/01/01 03:50:44;;;;;;;9.83;3.87;;;16.10;99.90;;;;;;5054623;28;20490;-67
2023/01/01 03:53:24;;;;;;;7.23;4.17;;;16.00;99.90;;;;;;5054726;28;20439;-65
2023/01/01 03:55:59;;;;;;;6.43;4.43;;;16.00;99.90;;;;;;5054922;28;20457;-67
2023/01/01 03:58:35;;;;;;;8.60;4.57;;;16.00;99.90;;;;;;5055095;28;20931;-67
2023/01/01 04:01:08;;;;;;;10.43;5.80;;;16.00;99.90;;;;;;5055560;28;20447;-67
2023/01/01 04:03:38;;;;;;;6.83;4.10;;;16.00;99.90;;;;;;5055065;28;20475;-66
2023/01/01 04:06:06;;;;;;;10.03;3.80;;;16.00;99.90;;;;;;5054618;28;20785;-67
2023/01/01 04:08:34;;;;;;;5.83;3.93;;;15.90;99.90;;;;;;5054963;28;20451;-67
2023/01/01 04:12:00;;;;;;;8.60;4.37;;;15.90;99.90;;;;;;5055161;28;20493;-65
2023/01/01 04:13:52;;;;;;;11.57;4.63;;;15.90;99.90;;;;;;5055036;28;20455;-67
2023/01/01 04:16:21;;;;;;;7.40;3.70;;;15.90;99.90;;;;;;5055552;28;20856;-67
2023/01/01 04:18:47;;;;;;;8.00;4.10;;;15.90;99.90;;;;;;5054930;28;20458;-66
2023/01/01 04:21:14;;;;;;;6.40;4.07;;;15.90;99.90;;;;;;5054481;28;20546;-68
2023/01/01 04:23:41;;;;;;;8.17;3.43;;;15.90;99.90;;;;;;5054302;28;20461;-67
2023/01/01 04:26:13;;;;;;;6.93;4.00;;;15.90;99.90;;;;;;5055290;28;20471;-68
2023/01/01 04:28:40;;;;;;;5.80;3.40;;;15.90;99.90;;;;;;5054668;28;20465;-66
2023/01/01 04:31:07;;;;;;;7.80;3.53;;;15.90;99.90;;;;;;5054749;28;20479;-67
2023/01/01 04:33:35;;;;;;;11.70;4.33;;;15.90;99.90;;;;;;5054025;28;20520;-67
2023/01/01 04:36:05;;;;;;;8.00;3.87;;;15.90;99.90;;;;;;5053865;28;20542;-67
2023/01/01 04:38:33;;;;;;;10.13;5.00;;;15.90;99.90;;;;;;5054380;28;20888;-66
2023/01/01 04:41:00;;;;;;;8.13;4.30;;;15.80;99.90;;;;;;5053767;28;20451;-66
2023/01/01 04:43:28;;;;;;;6.07;3.83;;;15.80;99.90;;;;;;5054130;28;20554;-67
2023/01/01 04:45:58;;;;;;;7.63;4.53;;;15.80;99.90;;;;;;5053837;28;20592;-67
2023/01/01 04:48:25;;;;;;;4.90;3.67;;;15.80;99.90;;;;;;5053843;28;20461;-67
2023/01/01 04:50:59;;;;;;;5.77;3.80;;;15.70;99.90;;;;;;5054182;28;20487;-67
2023/01/01 04:53:28;;;;;;;11.13;4.53;;;15.70;99.90;;;;;;5054198;28;20809;-66
2023/01/01 04:55:55;;;;;;;11.20;4.30;;;15.70;99.90;;;;;;5046151;28;20541;-67
2023/01/01 04:58:22;;;;;;;12.83;4.47;;;15.70;99.90;;;;;;5054331;28;20814;-67
2023/01/01 05:00:50;;;;;;;6.97;3.80;;;15.70;99.90;;;;;;5054091;28;20534;-66
2023/01/01 05:03:16;;;;;;;11.00;6.27;;;15.70;99.90;;;;;;5054242;28;20462;-68
2023/01/01 05:05:44;;;;;;;5.30;3.40;;;15.70;99.90;;;;;;5056038;28;20451;-68
2023/01/01 05:08:12;;;;;;;6.17;3.97;;;15.60;99.90;;;;;;5057932;28;20489;-67
2023/01/01 05:10:39;;;;;;;5.80;4.20;;;15.60;99.90;;;;;;5058135;28;20486;-67
2023/01/01 05:13:08;;;;;;;8.10;3.83;;;15.60;99.90;;;;;;5058086;28;20501;-67
2023/01/01 05:15:36;;;;;;;8.37;4.10;;;15.60;99.90;;;;;;5057888;28;20455;-67
2023/01/01 05:18:04;;;;;;;7.77;3.73;;;15.60;99.90;;;;;;5057969;28;20459;-67
2023/01/01 05:20:30;;;;;;;6.40;3.83;;;15.50;99.90;;;;;;5057246;28;20466;-66
2023/01/01 05:22:57;;;;;;;6.07;3.83;;;15.50;99.90;;;;;;5057467;28;20465;-67
2023/01/01 05:25:25;;;;;;;5.33;3.77;;;15.50;99.90;;;;;;5057443;28;20455;-68
2023/01/01 05:27:52;;;;;;;6.17;3.63;;;15.50;99.90;;;;;;5057420;28;20469;-67
2023/01/01 05:30:19;;;;;;;8.03;4.03;;;15.50;99.90;;;;;;5057279;28;20506;-66
2023/01/01 05:32:46;;;;;;;5.50;4.00;;;15.50;99.90;;;;;;5057416;28;20795;-68
2023/01/01 05:35:13;;;;;;;10.93;4.07;;;15.50;99.90;;;;;;5057226;28;20465;-67
2023/01/01 05:37:40;;;;;;;3.93;2.90;;;15.40;99.90;;;;;;5058001;28;20455;-66
2023/01/01 05:40:08;;;;;;;4.90;3.30;;;15.50;99.90;;;;;;5057508;28;20459;-67
2023/01/01 05:42:36;;;;;;;8.83;3.33;;;15.50;99.90;;;;;;5057064;28;20455;-66
2023/01/01 05:45:03;;;;;;;9.47;3.93;;;15.50;99.90;;;;;;5056956;28;20459;-67
2023/01/01 05:47:30;;;;;;;7.57;2.90;;;15.50;99.90;;;;;;5056798;28;20436;-67
2023/01/01 05:49:56;;;;;;;13.10;3.13;;;15.50;99.90;;;;;;5057076;28;20761;-68
2023/01/01 05:52:23;;;;;;;6.80;3.03;;;15.50;99.90;;;;;;5056714;28;20541;-68
2023/01/01 05:54:50;;;;;;;5.53;3.63;;;15.40;99.90;;;;;;5056958;28;20472;-67
2023/01/01 05:57:17;;;;;;;4.83;3.30;;;15.40;99.90;;;;;;5056897;28;20498;-67
2023/01/01 05:59:45;;;;;;;5.57;2.70;;;15.40;99.90;;;;;;5056680;28;21000;-66
2023/01/01 06:02:12;;;;;;;4.90;2.97;;;15.40;99.90;;;;;;5056708;28;20452;-67
2023/01/01 06:04:39;;;;;;;6.40;3.50;;;15.40;99.90;;;;;;5056692;28;20553;-67
2023/01/01 06:07:05;;;;;;;7.00;3.10;;;15.40;99.90;;;;;;5056828;28;20455;-67
2023/01/01 06:09:32;;;;;;;5.37;2.80;;;15.40;99.90;;;;;;5056799;28;20547;-67
2023/01/01 06:11:59;;;;;;;4.80;2.73;;;15.40;99.90;;;;;;5056314;28;20956;-68
2023/01/01 06:14:26;;;;;;;7.30;2.77;;;15.30;99.90;;;;;;5056630;28;20459;-68
2023/01/01 06:16:54;;;;;;;4.60;2.67;;;15.40;99.90;;;;;;5056156;28;20845;-67
2023/01/01 06:19:21;;;;;;;11.77;2.80;;;15.30;99.90;;;;;;5056098;28;20465;-66
2023/01/01 06:21:48;;;;;;;9.60;3.00;;;15.40;99.90;;;;;;5056076;28;20546;-66
2023/01/01 06:24:14;;;;;;;4.77;2.60;;;15.40;99.90;;;;;;5056808;28;20541;-67
2023/01/01 06:26:41;;;;;;;4.50;3.07;;;15.40;99.90;;;;;;5056183;28;20473;-66
2023/01/01 06:29:08;;;;;;;7.80;3.07;;;15.40;99.90;;;;;;5056375;28;20935;-68
2023/01/01 06:31:35;;;;;;;3.63;3.10;;;15.40;99.90;;;;;;5056759;28;20566;-68
2023/01/01 06:34:04;;;;;;;6.27;2.80;;;15.40;99.90;;;;;;5056382;28;20473;-66
2023/01/01 06:36:30;;;;;;;3.77;2.40;;;15.40;99.90;;;;;;5056214;28;20451;-67
2023/01/01 06:38:58;;;;;;;4.87;2.80;;;15.40;99.90;;;;;;5056389;28;20795;-67
2023/01/01 06:41:27;;;;;;;5.07;2.50;;;15.40;99.90;;;;;;5055969;28;20897;-68
2023/01/01 06:43:55;;;;;;;9.63;3.10;;;15.40;99.90;;;;;;5056148;28;20469;-67
2023/01/01 06:46:23;;;;;;;6.47;3.00;;;15.40;99.90;;;;;;5055870;28;20498;-66
2023/01/01 06:48:52;;;;;;;7.07;2.93;;;15.40;99.90;;;;;;5055745;28;20459;-66
2023/01/01 06:51:22;;;;;;;3.83;2.63;;;15.40;99.90;;;;;;5055881;28;20482;-66
2023/01/01 06:53:50;;;;;;;4.90;2.97;;;15.40;99.90;;;;;;5055890;28;20459;-66
2023/01/01 06:56:18;;;;;;;6.30;2.70;;;15.40;99.90;;;;;;5056337;28;20768;-66
2023/01/01 06:58:45;;;;;;;5.90;3.17;;;15.40;99.90;;;;;;5055889;28;20462;-68
2023/01/01 07:01:14;;;;;;;3.10;2.80;;;15.40;99.90;;;;;;5055492;28;20462;-67
2023/01/01 07:03:44;;;;;;;6.53;3.60;;;15.30;99.90;;;;;;5055855;28;20461;-66
2023/01/01 07:06:11;;;;;;;8.67;3.30;;;15.40;99.90;;;;;;5055135;28;20559;-68
2023/01/01 07:08:39;;;;;;;6.30;3.27;;;15.30;99.90;;;;;;5055385;28;20465;-67
2023/01/01 07:11:06;;;;;;;6.10;2.87;;;15.40;99.90;;;;;;5055194;28;20479;-68
2023/01/01 07:13:33;;;;;;;7.17;3.23;;;15.40;99.90;;;;;;5055420;28;20546;-68
2023/01/01 07:16:00;;;;;;;6.07;3.50;;;15.40;99.90;;;;;;5055456;28;20459;-66
2023/01/01 07:18:27;;;;;;;6.70;2.90;;;15.40;99.90;;;;;;5055181;28;20469;-69
2023/01/01 07:20:55;;;;;;;6.50;2.97;;;15.40;99.90;;;;;;5055438;28;20545;-68
2023/01/01 07:23:22;;;;;;;9.73;3.47;;;15.30;99.90;;;;;;5055428;28;20557;-68
2023/01/01 07:25:52;;;;;;;4.60;2.80;;;15.40;99.90;;;;;;5055129;28;20550;-67
2023/01/01 07:28:20;;;;;;;4.70;3.40;;;15.40;99.90;;;;;;5054664;28;20510;-67
2023/01/01 07:30:47;;;;;;;4.00;2.80;;;15.40;99.90;;;;;;5055162;28;20489;-68
2023/01/01 07:33:16;;;;;;;5.37;3.47;;;15.40;99.90;;;;;;5055053;28;20467;-67
2023/01/01 07:35:44;;;;;;;5.60;2.97;;;15.40;99.90;;;;;;5055625;28;20455;-67
2023/01/01 07:38:11;;;;;;;3.43;2.70;;;15.40;99.90;;;;;;5055137;28;20459;-66
2023/01/01 07:40:39;;;;;;;4.50;3.43;;;15.40;99.90;;;;;;5054888;28;20896;-67
2023/01/01 07:43:07;;;;;;;6.93;3.40;;;15.40;99.90;;;;;;5055146;28;20541;-67
2023/01/01 07:45:34;;;;;;;8.00;3.53;;;15.40;99.90;;;;;;5054787;28;20490;-68
2023/01/01 07:48:02;;;;;;;7.00;3.23;;;15.50;99.90;;;;;;5055047;28;20440;-68
2023/01/01 07:50:31;;;;;;;6.87;3.60;;;15.50;99.90;;;;;;5055092;28;20550;-68
2023/01/01 07:52:58;;;;;;;7.97;3.60;;;15.50;99.90;;;;;;5054982;28;20454;-67
2023/01/01 07:55:25;;;;;;;6.43;3.33;;;15.50;99.90;;;;;;5055011;28;20459;-68
2023/01/01 07:57:52;;;;;;;4.77;3.47;;;15.50;99.90;;;;;;5055605;28;20768;-68
2023/01/01 08:00:22;;;;;;;5.50;3.87;;;15.50;99.90;;;;;;5055851;28;20484;-68
2023/01/01 08:02:49;;;;;;;4.50;3.60;;;15.50;99.90;;;;;;5055504;28;20631;-68
2023/01/01 08:05:16;;;;;;;8.07;3.50;;;15.50;99.90;;;;;;5054685;28;20459;-67
2023/01/01 08:07:46;;;;;;;5.03;3.37;;;15.50;99.90;;;;;;5054801;28;20459;-68
2023/01/01 08:10:13;;;;;;;6.73;3.57;;;15.50;99.90;;;;;;5054891;28;20829;-67
2023/01/01 08:12:40;;;;;;;5.53;3.73;;;15.50;99.90;;;;;;5054400;28;20483;-68
2023/01/01 08:15:08;;;;;;;5.17;4.20;;;15.50;99.90;;;;;;5055164;28;20455;-69
2023/01/01 08:17:36;;;;;;;9.23;3.67;;;15.50;99.90;;;;;;5055121;28;20546;-67
2023/01/01 08:20:04;;;;;;;4.77;3.40;;;15.50;99.90;;;;;;5055323;28;20455;-68
2023/01/01 08:22:31;;;;;;;9.60;4.33;;;15.50;99.90;;;;;;5054734;28;20559;-66
2023/01/01 08:24:58;;;;;;;4.27;3.20;;;15.50;99.90;;;;;;5054608;28;20451;-66
2023/01/01 08:27:25;;;;;;;7.90;3.47;;;15.60;99.90;;;;;;5054388;28;20853;-68
2023/01/01 08:29:52;;;;;;;5.77;3.63;;;15.60;99.90;;;;;;5054414;28;20465;-67
2023/01/01 08:32:19;;;;;;;8.87;3.90;;;15.60;99.90;;;;;;5054438;28;20582;-67
2023/01/01 08:34:47;;;;;;;6.40;3.77;;;15.60;99.90;;;;;;5054307;28;20455;-67
2023/01/01 08:37:14;;;;;;;4.40;3.47;;;15.70;99.90;;;;;;5054478;28;20455;-68
2023/01/01 08:39:41;;;;;;;11.30;4.70;;;15.70;99.90;;;;;;5056118;28;20503;-68
2023/01/01 08:42:08;;;;;;;7.10;4.17;;;15.60;99.90;;;;;;5058628;28;20643;-68
2023/01/01 08:44:35;;;;;;;7.63;3.90;;;15.70;99.90;;;;;;5058781;28;20469;-68
2023/01/01 08:47:02;;;;;;;5.47;3.93;;;15.70;99.90;;;;;;5058006;28;20486;-67
2023/01/01 08:49:29;;;;;;;6.33;4.40;;;15.60;99.90;;;;;;5058290;28;20668;-68
2023/01/01 08:51:58;;;;;;;5.80;3.80;;;15.60;99.90;;;;;;5058721;28;20479;-68
2023/01/01 08:54:24;;;;;;;5.10;3.60;;;15.70;99.90;;;;;;5058518;28;20923;-68
2023/01/01 08:56:51;;;;;;;5.33;3.40;;;15.70;99.90;;;;;;5058267;28;20465;-67
2023/01/01 08:59:18;;;;;;;5.50;3.90;;;15.70;99.90;;;;;;5058149;28;20477;-68
2023/01/01 09:01:45;;;;;;;5.40;4.10;;;15.70;99.90;;;;;;5057846;28;20450;-66
2023/01/01 09:04:12;;;;;;;7.23;3.80;;;15.70;99.90;;;;;;5058023;28;20458;-67
2023/01/01 09:06:39;;;;;;;6.70;3.57;;;15.70;99.90;;;;;;5057701;28;20465;-68
2023/01/01 09:09:07;;;;;;;6.50;4.20;;;15.70;99.90;;;;;;5057386;28;20465;-67
2023/01/01 09:11:34;;;;;;;5.30;3.77;;;15.70;99.90;;;;;;5057532;28;20563;-69
2023/01/01 09:14:00;;;;;;;7.37;4.00;;;15.70;99.90;;;;;;5057503;28;20520;-67
2023/01/01 09:16:27;;;;;;;5.80;4.23;;;15.70;99.90;;;;;;5058266;28;20550;-68
2023/01/01 09:18:54;;;;;;;4.20;3.67;;;15.70;99.90;;;;;;5057528;28;20455;-68
2023/01/01 09:21:21;;;;;;;6.00;3.50;;;15.70;99.90;;;;;;5057645;28;20451;-68
2023/01/01 09:23:48;;;;;;;5.80;3.00;;;15.70;99.90;;;;;;5057597;28;20469;-68
2023/01/01 09:26:16;;;;;;;4.87;3.27;;;15.70;99.90;;;;;;5057404;28;20450;-68
2023/01/01 09:28:43;;;;;;;7.13;4.53;;;15.70;99.90;;;;;;5057669;28;20455;-68
2023/01/01 09:31:10;;;;;;;6.70;3.83;;;15.70;99.90;;;;;;5057524;28;20573;-68
2023/01/01 09:33:37;;;;;;;7.13;3.50;;;15.70;99.90;;;;;;5057363;28;20791;-69
2023/01/01 09:36:14;;;;;;;6.13;3.43;;;15.70;99.90;;;;;;5057438;28;20465;-67
2023/01/01 09:38:41;;;;;;;5.90;3.23;;;15.70;99.90;;;;;;5058013;28;20482;-67
2023/01/01 09:41:18;;;;;;;6.20;3.60;;;15.80;99.90;;;;;;5058121;28;20469;-69
2023/01/01 09:43:54;;;;;;;4.80;3.30;;;15.80;99.90;;;;;;5057564;28;20453;-67
2023/01/01 09:46:24;;;;;;;5.07;3.63;;;15.90;99.90;;;;;;5056488;28;20474;-68
2023/01/01 09:48:55;;;;;;;7.47;3.50;;;15.90;99.90;;;;;;5057937;28;20469;-68
2023/01/01 09:51:22;;;;;;;4.03;3.27;;;15.90;99.90;;;;;;5056575;28;20440;-68
2023/01/01 09:53:54;;;;;;;9.67;3.70;;;16.00;99.90;;;;;;5046677;28;20464;-67
2023/01/01 09:56:26;;;;;;;6.30;3.13;;;16.00;99.90;;;;;;5036809;28;20453;-67
2023/01/01 09:58:54;;;;;;;5.50;3.70;;;16.00;99.90;;;;;;5036968;28;20520;-68
2023/01/01 10:01:34;;;;;;;4.70;3.10;;;16.00;99.90;;;;;;5036927;28;20534;-67
2023/01/01 10:04:14;;;;;;;3.40;3.10;;;16.00;99.90;;;;;;5036659;28;20444;-68
2023/01/01 10:06:47;;;;;;;8.90;3.40;;;16.00;99.90;;;;;;5036965;28;20455;-66
2023/01/01 10:09:20;;;;;;;4.80;3.10;;;16.00;99.90;;;;;;5036675;28;20780;-68
2023/01/01 10:11:56;;;;;;;4.90;2.77;;;16.10;99.90;;;;;;5036689;28;20932;-67
2023/01/01 10:14:30;;;;;;;5.13;2.90;;;16.10;99.90;;;;;;5036493;28;20919;-67
2023/01/01 10:16:59;;;;;;;6.30;3.03;;;16.10;99.90;;;;;;5036753;28;20871;-67
2023/01/01 10:19:33;;;;;;;6.33;3.30;;;16.10;99.90;;;;;;5036672;28;20466;-67
2023/01/01 10:22:07;;;;;;;4.57;2.83;;;16.20;99.90;;;;;;5036719;28;20444;-68
2023/01/01 10:24:41;;;;;;;7.03;3.03;;;16.10;99.90;;;;;;5036233;28;20446;-67
2023/01/01 10:27:22;;;;;;;4.47;3.20;;;16.10;99.90;;;;;;5036448;28;20444;-67
2023/01/01 10:29:51;;;;;;;7.00;3.20;;;16.10;99.90;;;;;;5036689;28;20464;-67
2023/01/01 10:32:21;;;;;;;5.47;2.90;;;16.10;99.90;;;;;;5036537;28;20475;-67
2023/01/01 10:34:49;;;;;;;7.13;2.90;;;16.20;99.90;;;;;;5036287;28;20535;-66
2023/01/01 10:37:16;;;;;;;4.77;2.60;;;16.20;99.90;;;;;;5035976;28;20464;-68
2023/01/01 10:39:46;;;;;;;4.10;2.90;;;16.20;99.90;;;;;;5036358;28;20468;-67
2023/01/01 10:42:15;;;;;;;5.27;2.97;;;16.20;99.90;;;;;;5035797;28;20457;-68
2023/01/01 10:44:43;;;;;;;3.97;2.83;;;16.20;99.90;;;;;;5036066;28;20474;-67
2023/01/01 10:47:25;;;;;;;3.40;2.53;;;16.20;99.90;;;;;;5036035;28;20484;-67
2023/01/01 10:49:57;;;;;;;7.30;3.00;;;16.20;99.90;;;;;;5035889;28;20919;-67
2023/01/01 10:52:30;;;;;;;5.90;2.93;;;16.30;99.90;;;;;;5036059;28;20511;-68
2023/01/01 10:54:58;;;;;;;3.50;2.43;;;16.30;99.90;;;;;;5036628;28;20460;-67
2023/01/01 10:57:34;;;;;;;6.67;3.23;;;16.30;99.90;;;;;;5036358;28;20464;-67
2023/01/01 11:00:22;;;;;;;4.10;2.50;;;16.30;99.90;;;;;;5036252;28;20447;-67
2023/01/01 11:03:19;;;;;;;9.77;2.87;;;16.30;99.90;;;;;;5035091;28;20527;-69
2023/01/01 11:06:10;;;;;;;3.07;2.50;;;16.40;99.90;;;;;;5035773;28;20917;-69
2023/01/01 11:08:40;;;;;;;5.80;3.00;;;16.40;99.90;;;;;;5035594;28;20440;-68
2023/01/01 11:11:17;;;;;;;3.23;2.43;;;16.40;99.90;;;;;;5035690;28;20925;-68
2023/01/01 11:13:50;;;;;;;7.47;2.53;;;16.40;99.90;;;;;;5035636;28;20869;-68
2023/01/01 11:16:17;;;;;;;4.97;2.80;;;16.40;99.90;;;;;;5036333;28;20464;-68
2023/01/01 11:18:44;;;;;;;4.67;2.60;;;16.40;99.90;;;;;;5035720;28;20467;-69
2023/01/01 11:21:18;;;;;;;4.67;2.53;;;16.40;99.90;;;;;;5035273;28;20539;-68
2023/01/01 11:24:12;;;;;;;7.73;2.70;;;16.40;99.90;;;;;;5092793;27;20529;-68
2023/01/01 11:26:39;;;;;;;5.23;2.80;;;16.40;99.90;;;;;;5092069;28;20448;-69
2023/01/01 11:29:21;;;;;;;5.93;2.20;;;16.40;99.90;;;;;;5092275;28;20825;-69
2023/01/01 11:31:48;;;;;;;4.70;2.60;;;16.40;99.90;;;;;;5092042;28;20476;-68
2023/01/01 11:34:27;;;;;;;7.10;2.40;;;16.40;99.90;;;;;;5092141;28;20492;-68
2023/01/01 11:37:10;;;;;;;3.23;2.60;;;16.40;99.90;;;;;;5092740;28;20453;-68
2023/01/01 11:39:42;;;;;;;3.73;2.20;;;16.40;99.90;;;;;;5091871;28;20529;-68
2023/01/01 11:42:16;;;;;;;3.40;2.83;;;16.40;99.90;;;;;;5092525;28;20466;-68
2023/01/01 11:44:46;;;;;;;6.93;2.80;;;16.40;99.90;;;;;;5092096;28;20442;-68
2023/01/01 11:47:24;;;;;;;4.43;1.93;;;16.50;99.90;;;;;;5091948;28;20798;-68
2023/01/01 11:49:56;;;;;;;3.60;2.43;;;16.50;99.90;;;;;;5091982;28;20442;-68
2023/01/01 11:52:34;;;;;;;3.93;2.63;;;16.50;99.90;;;;;;5092052;28;20438;-67
2023/01/01 11:55:10;;;;;;;3.77;2.33;;;16.50;99.90;;;;;;5091670;28;20448;-67
2023/01/01 11:57:39;;;;;;;4.20;2.53;;;16.50;99.90;;;;;;5091227;28;20441;-68
2023/01/01 12:00:12;;;;;;;3.87;2.40;;;16.60;99.90;;;;;;5091287;28;20464;-68
2023/01/01 12:02:46;;;;;;;3.83;2.57;;;16.60;99.90;;;;;;5091197;28;20466;-68
2023/01/01 12:05:20;;;;;;;4.77;2.23;;;16.50;99.90;;;;;;5091728;28;20452;-68
2023/01/01 12:07:48;;;;;;;7.57;2.83;;;16.50;99.90;;;;;;5091182;28;20532;-66
2023/01/01 12:10:21;;;;;;;2.43;2.03;;;16.50;99.90;;;;;;5091076;28;20453;-68
2023/01/01 12:12:53;;;;;;;4.00;2.50;;;16.50;99.90;;;;;;5091140;28;20434;-67
2023/01/01 12:15:26;;;;;;;4.80;2.60;;;16.50;99.90;;;;;;5090674;28;20528;-67
2023/01/01 12:18:01;;;;;;;3.53;2.80;;;16.50;99.90;;;;;;5091120;28;20442;-67
2023/01/01 12:20:32;;;;;;;5.30;2.80;;;16.50;99.90;;;;;;5090769;28;20906;-68
2023/01/01 12:22:59;;;;;;;4.47;2.63;;;16.50;99.90;;;;;;5090421;28;20481;-67
2023/01/01 12:25:35;;;;;;;6.00;2.37;;;16.50;99.90;;;;;;5090502;28;20543;-68
2023/01/01 12:28:11;;;;;;;9.73;3.17;;;16.50;99.90;;;;;;5090503;28;20912;-67
2023/01/01 12:30:46;;;;;;;4.60;2.30;;;16.50;99.90;;;;;;5091238;28;20781;-67
2023/01/01 12:33:46;;;;;;;3.60;2.20;;;16.60;99.90;;;;;;5088832;28;20433;-68
2023/01/01 12:36:21;;;;;;;3.83;2.57;;;16.60;99.90;;;;;;5076855;28;20513;-67
2023/01/01 12:39:26;;;;;;;4.00;2.40;;;16.70;99.90;;;;;;5077085;28;20445;-67
2023/01/01 12:42:01;;;;;;;3.50;2.60;;;16.70;99.90;;;;;;5076633;28;20450;-67
2023/01/01 12:44:40;;;;;;;5.70;2.47;;;16.70;99.90;;;;;;5076548;28;20442;-66
2023/01/01 12:47:16;;;;;;;5.20;2.87;;;16.70;99.90;;;;;;5077790;28;20776;-67
2023/01/01 12:49:54;;;;;;;4.37;2.63;;;16.70;99.90;;;;;;5076802;28;20948;-67
2023/01/01 12:52:39;;;;;;;4.37;2.87;;;16.60;99.90;;;;;;5076915;28;20537;-67
2023/01/01 12:55:36;;;;;;;3.97;2.40;;;16.60;99.90;;;;;;5076683;28;20847;-67
2023/01/01 12:58:10;;;;;;;4.67;2.40;;;16.50;99.90;;;;;;5076779;28;20518;-66
2023/01/01 13:00:39;;;;;;;5.57;2.93;;;16.50;99.90;;;;;;5076881;28;20528;-66
2023/01/01 13:03:14;;;;;;;2.90;2.50;;;16.50;99.90;;;;;;5076233;28;20946;-68
2023/01/01 13:05:43;;;;;;;5.60;2.30;;;16.50;99.90;;;;;;5076412;28;20827;-67
2023/01/01 13:08:10;;;;;;;5.10;2.93;;;16.50;99.90;;;;;;5076910;28;20553;-67